sensor_id;sensor_type;location;lat;lon;timestamp;P1;durP1;ratioP1;P2;durP2;ratioP2
71087;SDS011;58747;50.674;4.616;2022-12-10T00:01:33;34.53;;;13.75;;
71087;SDS011;58747;50.674;4.616;2022-12-10T00:04:00;33.78;;;11.82;;
71087;SDS011;58747;50.674;4.616;2022-12-10T00:06:27;33.37;;;12.93;;
71087;SDS011;58747;50.674;4.616;2022-12-10T00:08:53;35.58;;;12.20;;
71087;SDS011;58747;50.674;4.616;2022-12-10T00:11:20;32.17;;;12.57;;
71087;SDS011;58747;50.674;4.616;2022-12-10T00:13:47;38.03;;;12.88;;
71087;SDS011;58747;50.674;4.616;2022-12-10T00:16:14;34.33;;;12.45;;
71087;SDS011;58747;50.674;4.616;2022-12-10T00:18:45;36.88;;;13.02;;
71087;SDS011;58747;50.674;4.616;2022-12-10T00:21:11;36.72;;;12.75;;
71087;SDS011;58747;50.674;4.616;2022-12-10T00:23:39;36.20;;;12.97;;
71087;SDS011;58747;50.674;4.616;2022-12-10T00:26:12;37.35;;;14.38;;
71087;SDS011;58747;50.674;4.616;2022-12-10T00:28:42;35.55;;;12.95;;
71087;SDS011;58747;50.674;4.616;2022-12-10T00:31:10;33.85;;;13.32;;
71087;SDS011;58747;50.674;4.616;2022-12-10T00:33:37;36.78;;;14.80;;
71087;SDS011;58747;50.674;4.616;2022-12-10T00:36:03;39.07;;;14.93;;
71087;SDS011;58747;50.674;4.616;2022-12-10T00:38:33;39.42;;;14.27;;
71087;SDS011;58747;50.674;4.616;2022-12-10T00:40:59;37.08;;;13.82;;
71087;SDS011;58747;50.674;4.616;2022-12-10T00:43:25;39.83;;;15.30;;
71087;SDS011;58747;50.674;4.616;2022-12-10T00:45:50;40.90;;;13.50;;
71087;SDS011;58747;50.674;4.616;2022-12-10T00:48:16;39.33;;;13.83;;
71087;SDS011;58747;50.674;4.616;2022-12-10T00:50:41;43.47;;;15.60;;
71087;SDS011;58747;50.674;4.616;2022-12-10T00:53:06;44.03;;;15.90;;
71087;SDS011;58747;50.674;4.616;2022-12-10T00:55:31;46.07;;;16.33;;
71087;SDS011;58747;50.674;4.616;2022-12-10T00:57:57;42.97;;;15.53;;
71087;SDS011;58747;50.674;4.616;2022-12-10T01:00:22;48.47;;;16.20;;
71087;SDS011;58747;50.674;4.616;2022-12-10T01:02:49;42.38;;;15.68;;
71087;SDS011;58747;50.674;4.616;2022-12-10T01:05:14;41.47;;;15.43;;
71087;SDS011;58747;50.674;4.616;2022-12-10T01:07:40;47.58;;;16.15;;
71087;SDS011;58747;50.674;4.616;2022-12-10T01:10:05;44.00;;;15.40;;
71087;SDS011;58747;50.674;4.616;2022-12-10T01:12:30;41.00;;;16.00;;
71087;SDS011;58747;50.674;4.616;2022-12-10T01:14:56;46.93;;;15.57;;
71087;SDS011;58747;50.674;4.616;2022-12-10T01:17:21;44.23;;;15.63;;
71087;SDS011;58747;50.674;4.616;2022-12-10T01:19:46;41.30;;;16.77;;
71087;SDS011;58747;50.674;4.616;2022-12-10T01:22:12;40.27;;;15.07;;
71087;SDS011;58747;50.674;4.616;2022-12-10T01:24:37;40.35;;;14.10;;
71087;SDS011;58747;50.674;4.616;2022-12-10T01:27:02;37.47;;;13.43;;
71087;SDS011;58747;50.674;4.616;2022-12-10T01:29:28;44.00;;;14.97;;
71087;SDS011;58747;50.674;4.616;2022-12-10T01:31:54;40.63;;;14.27;;
71087;SDS011;58747;50.674;4.616;2022-12-10T01:34:21;47.30;;;15.93;;
71087;SDS011;58747;50.674;4.616;2022-12-10T01:36:49;41.88;;;15.30;;
71087;SDS011;58747;50.674;4.616;2022-12-10T01:39:16;48.40;;;16.77;;
71087;SDS011;58747;50.674;4.616;2022-12-10T01:41:44;46.92;;;17.05;;
71087;SDS011;58747;50.674;4.616;2022-12-10T01:46:36;47.53;;;16.70;;
71087;SDS011;58747;50.674;4.616;2022-12-10T01:49:04;41.53;;;14.75;;
71087;SDS011;58747;50.674;4.616;2022-12-10T01:51:34;49.35;;;16.50;;
71087;SDS011;58747;50.674;4.616;2022-12-10T01:54:02;47.25;;;16.13;;
71087;SDS011;58747;50.674;4.616;2022-12-10T01:56:31;46.42;;;16.60;;
71087;SDS011;58747;50.674;4.616;2022-12-10T01:58:59;42.73;;;15.27;;
71087;SDS011;58747;50.674;4.616;2022-12-10T02:01:28;51.10;;;17.83;;
71087;SDS011;58747;50.674;4.616;2022-12-10T02:09:19;40.65;;;14.73;;
71087;SDS011;58747;50.674;4.616;2022-12-10T02:19:59;49.63;;;15.70;;
71087;SDS011;58747;50.674;4.616;2022-12-10T02:22:29;45.17;;;16.67;;
71087;SDS011;58747;50.674;4.616;2022-12-10T02:24:58;41.45;;;14.82;;
71087;SDS011;58747;50.674;4.616;2022-12-10T02:30:10;42.33;;;15.57;;
71087;SDS011;58747;50.674;4.616;2022-12-10T02:32:40;39.97;;;14.00;;
71087;SDS011;58747;50.674;4.616;2022-12-10T02:35:12;41.35;;;15.57;;
71087;SDS011;58747;50.674;4.616;2022-12-10T02:37:47;43.92;;;15.05;;
71087;SDS011;58747;50.674;4.616;2022-12-10T02:40:17;37.38;;;13.68;;
71087;SDS011;58747;50.674;4.616;2022-12-10T02:42:48;40.78;;;14.63;;
71087;SDS011;58747;50.674;4.616;2022-12-10T02:45:16;50.10;;;16.80;;
71087;SDS011;58747;50.674;4.616;2022-12-10T02:47:43;43.42;;;15.23;;
71087;SDS011;58747;50.674;4.616;2022-12-10T02:50:09;47.20;;;14.43;;
71087;SDS011;58747;50.674;4.616;2022-12-10T02:52:37;42.33;;;16.55;;
71087;SDS011;58747;50.674;4.616;2022-12-10T02:55:03;43.45;;;15.80;;
71087;SDS011;58747;50.674;4.616;2022-12-10T03:10:45;43.92;;;14.55;;
71087;SDS011;58747;50.674;4.616;2022-12-10T03:13:14;44.85;;;15.55;;
71087;SDS011;58747;50.674;4.616;2022-12-10T03:15:41;47.70;;;15.80;;
71087;SDS011;58747;50.674;4.616;2022-12-10T03:18:09;48.45;;;16.20;;
71087;SDS011;58747;50.674;4.616;2022-12-10T03:20:37;45.08;;;16.70;;
71087;SDS011;58747;50.674;4.616;2022-12-10T03:23:05;46.42;;;16.02;;
71087;SDS011;58747;50.674;4.616;2022-12-10T03:25:34;46.60;;;16.42;;
71087;SDS011;58747;50.674;4.616;2022-12-10T03:28:02;45.28;;;14.13;;
71087;SDS011;58747;50.674;4.616;2022-12-10T03:30:29;40.92;;;16.10;;
71087;SDS011;58747;50.674;4.616;2022-12-10T03:32:57;47.65;;;14.80;;
71087;SDS011;58747;50.674;4.616;2022-12-10T03:35:22;49.50;;;16.07;;
71087;SDS011;58747;50.674;4.616;2022-12-10T03:37:49;51.58;;;15.55;;
71087;SDS011;58747;50.674;4.616;2022-12-10T03:40:16;53.85;;;17.70;;
71087;SDS011;58747;50.674;4.616;2022-12-10T03:42:45;48.92;;;17.05;;
71087;SDS011;58747;50.674;4.616;2022-12-10T03:45:10;47.60;;;15.73;;
71087;SDS011;58747;50.674;4.616;2022-12-10T03:47:35;53.80;;;15.53;;
71087;SDS011;58747;50.674;4.616;2022-12-10T03:50:01;53.73;;;18.00;;
71087;SDS011;58747;50.674;4.616;2022-12-10T03:52:26;46.53;;;15.93;;
71087;SDS011;58747;50.674;4.616;2022-12-10T03:54:52;46.70;;;16.60;;
71087;SDS011;58747;50.674;4.616;2022-12-10T03:57:17;54.30;;;16.85;;
71087;SDS011;58747;50.674;4.616;2022-12-10T03:59:43;48.77;;;16.27;;
71087;SDS011;58747;50.674;4.616;2022-12-10T04:02:08;57.10;;;16.97;;
71087;SDS011;58747;50.674;4.616;2022-12-10T04:04:33;48.87;;;16.13;;
71087;SDS011;58747;50.674;4.616;2022-12-10T04:06:59;48.15;;;16.05;;
71087;SDS011;58747;50.674;4.616;2022-12-10T04:09:24;43.33;;;17.40;;
71087;SDS011;58747;50.674;4.616;2022-12-10T04:11:49;56.10;;;17.53;;
71087;SDS011;58747;50.674;4.616;2022-12-10T04:14:15;54.57;;;16.50;;
71087;SDS011;58747;50.674;4.616;2022-12-10T04:16:59;59.42;;;16.70;;
71087;SDS011;58747;50.674;4.616;2022-12-10T04:19:25;49.57;;;17.17;;
71087;SDS011;58747;50.674;4.616;2022-12-10T04:21:50;53.88;;;17.52;;
71087;SDS011;58747;50.674;4.616;2022-12-10T04:24:35;53.00;;;16.45;;
71087;SDS011;58747;50.674;4.616;2022-12-10T04:27:21;52.50;;;18.50;;
71087;SDS011;58747;50.674;4.616;2022-12-10T04:29:49;53.97;;;17.23;;
71087;SDS011;58747;50.674;4.616;2022-12-10T04:32:15;61.25;;;20.60;;
71087;SDS011;58747;50.674;4.616;2022-12-10T04:34:40;64.13;;;20.38;;
71087;SDS011;58747;50.674;4.616;2022-12-10T04:37:06;56.08;;;19.33;;
71087;SDS011;58747;50.674;4.616;2022-12-10T04:39:32;64.77;;;20.20;;
71087;SDS011;58747;50.674;4.616;2022-12-10T04:41:58;62.22;;;20.77;;
71087;SDS011;58747;50.674;4.616;2022-12-10T04:44:25;61.05;;;19.23;;
71087;SDS011;58747;50.674;4.616;2022-12-10T04:46:50;58.40;;;19.83;;
71087;SDS011;58747;50.674;4.616;2022-12-10T04:49:15;68.13;;;22.53;;
71087;SDS011;58747;50.674;4.616;2022-12-10T04:51:41;58.05;;;21.08;;
71087;SDS011;58747;50.674;4.616;2022-12-10T04:54:07;68.40;;;22.13;;
71087;SDS011;58747;50.674;4.616;2022-12-10T04:56:32;65.50;;;21.20;;
71087;SDS011;58747;50.674;4.616;2022-12-10T04:58:59;60.80;;;20.17;;
71087;SDS011;58747;50.674;4.616;2022-12-10T05:01:25;67.07;;;21.70;;
71087;SDS011;58747;50.674;4.616;2022-12-10T05:03:51;66.85;;;21.98;;
71087;SDS011;58747;50.674;4.616;2022-12-10T05:06:17;58.07;;;19.53;;
71087;SDS011;58747;50.674;4.616;2022-12-10T05:08:43;64.22;;;21.58;;
71087;SDS011;58747;50.674;4.616;2022-12-10T05:11:10;70.17;;;21.63;;
71087;SDS011;58747;50.674;4.616;2022-12-10T05:13:40;69.50;;;21.77;;
71087;SDS011;58747;50.674;4.616;2022-12-10T05:16:07;77.47;;;22.42;;
71087;SDS011;58747;50.674;4.616;2022-12-10T05:18:34;69.85;;;23.25;;
71087;SDS011;58747;50.674;4.616;2022-12-10T05:21:01;71.93;;;22.53;;
71087;SDS011;58747;50.674;4.616;2022-12-10T05:23:27;62.53;;;20.40;;
71087;SDS011;58747;50.674;4.616;2022-12-10T05:26:06;69.43;;;21.60;;
71087;SDS011;58747;50.674;4.616;2022-12-10T05:28:54;58.97;;;18.58;;
71087;SDS011;58747;50.674;4.616;2022-12-10T05:33:47;51.33;;;16.42;;
71087;SDS011;58747;50.674;4.616;2022-12-10T05:36:13;53.43;;;16.07;;
71087;SDS011;58747;50.674;4.616;2022-12-10T05:38:40;49.90;;;16.88;;
71087;SDS011;58747;50.674;4.616;2022-12-10T05:41:16;56.38;;;17.67;;
71087;SDS011;58747;50.674;4.616;2022-12-10T05:43:46;56.28;;;19.33;;
71087;SDS011;58747;50.674;4.616;2022-12-10T05:46:13;63.80;;;19.70;;
71087;SDS011;58747;50.674;4.616;2022-12-10T05:48:40;65.00;;;20.60;;
71087;SDS011;58747;50.674;4.616;2022-12-10T05:51:07;61.77;;;19.60;;
71087;SDS011;58747;50.674;4.616;2022-12-10T05:53:35;59.47;;;19.23;;
71087;SDS011;58747;50.674;4.616;2022-12-10T05:56:01;62.72;;;20.17;;
71087;SDS011;58747;50.674;4.616;2022-12-10T05:58:30;68.40;;;19.27;;
71087;SDS011;58747;50.674;4.616;2022-12-10T06:00:56;61.00;;;19.65;;
71087;SDS011;58747;50.674;4.616;2022-12-10T06:03:22;58.77;;;18.23;;
71087;SDS011;58747;50.674;4.616;2022-12-10T06:05:47;58.90;;;18.20;;
71087;SDS011;58747;50.674;4.616;2022-12-10T06:08:13;56.43;;;17.63;;
71087;SDS011;58747;50.674;4.616;2022-12-10T06:10:38;51.07;;;18.10;;
71087;SDS011;58747;50.674;4.616;2022-12-10T06:13:03;53.33;;;15.30;;
71087;SDS011;58747;50.674;4.616;2022-12-10T06:15:30;62.95;;;15.82;;
71087;SDS011;58747;50.674;4.616;2022-12-10T06:17:56;60.65;;;17.05;;
71087;SDS011;58747;50.674;4.616;2022-12-10T06:20:22;54.03;;;16.75;;
71087;SDS011;58747;50.674;4.616;2022-12-10T06:22:48;62.95;;;17.50;;
71087;SDS011;58747;50.674;4.616;2022-12-10T06:25:14;56.92;;;15.98;;
71087;SDS011;58747;50.674;4.616;2022-12-10T06:27:39;67.90;;;17.70;;
71087;SDS011;58747;50.674;4.616;2022-12-10T06:30:05;55.90;;;17.40;;
71087;SDS011;58747;50.674;4.616;2022-12-10T06:32:31;61.35;;;17.75;;
71087;SDS011;58747;50.674;4.616;2022-12-10T06:34:56;58.07;;;17.93;;
71087;SDS011;58747;50.674;4.616;2022-12-10T06:37:21;50.30;;;17.03;;
71087;SDS011;58747;50.674;4.616;2022-12-10T06:39:47;53.03;;;15.90;;
71087;SDS011;58747;50.674;4.616;2022-12-10T06:42:14;58.95;;;17.08;;
71087;SDS011;58747;50.674;4.616;2022-12-10T06:44:39;50.70;;;16.00;;
71087;SDS011;58747;50.674;4.616;2022-12-10T06:47:05;59.33;;;16.00;;
71087;SDS011;58747;50.674;4.616;2022-12-10T06:49:30;47.17;;;14.80;;
71087;SDS011;58747;50.674;4.616;2022-12-10T06:51:55;52.97;;;16.48;;
71087;SDS011;58747;50.674;4.616;2022-12-10T06:54:21;48.35;;;16.13;;
71087;SDS011;58747;50.674;4.616;2022-12-10T06:56:46;59.03;;;16.50;;
71087;SDS011;58747;50.674;4.616;2022-12-10T06:59:12;50.47;;;14.37;;
71087;SDS011;58747;50.674;4.616;2022-12-10T07:01:37;48.67;;;15.07;;
71087;SDS011;58747;50.674;4.616;2022-12-10T07:04:02;55.80;;;16.53;;
71087;SDS011;58747;50.674;4.616;2022-12-10T07:06:30;66.00;;;16.88;;
71087;SDS011;58747;50.674;4.616;2022-12-10T07:08:57;44.67;;;14.63;;
71087;SDS011;58747;50.674;4.616;2022-12-10T07:11:23;47.53;;;15.77;;
71087;SDS011;58747;50.674;4.616;2022-12-10T07:13:49;54.70;;;14.65;;
71087;SDS011;58747;50.674;4.616;2022-12-10T07:16:22;55.92;;;15.18;;
71087;SDS011;58747;50.674;4.616;2022-12-10T07:18:52;50.45;;;14.93;;
71087;SDS011;58747;50.674;4.616;2022-12-10T07:21:26;58.70;;;17.58;;
71087;SDS011;58747;50.674;4.616;2022-12-10T07:23:57;57.38;;;16.17;;
71087;SDS011;58747;50.674;4.616;2022-12-10T07:26:25;66.35;;;15.18;;
71087;SDS011;58747;50.674;4.616;2022-12-10T07:28:50;30.63;;;9.17;;
71087;SDS011;58747;50.674;4.616;2022-12-10T07:31:16;58.13;;;15.98;;
71087;SDS011;58747;50.674;4.616;2022-12-10T07:33:41;69.70;;;14.63;;
71087;SDS011;58747;50.674;4.616;2022-12-10T07:36:08;62.70;;;15.60;;
71087;SDS011;58747;50.674;4.616;2022-12-10T07:38:35;48.40;;;13.95;;
71087;SDS011;58747;50.674;4.616;2022-12-10T07:41:11;45.70;;;13.80;;
71087;SDS011;58747;50.674;4.616;2022-12-10T07:43:38;44.35;;;14.30;;
71087;SDS011;58747;50.674;4.616;2022-12-10T07:48:59;51.57;;;13.57;;
71087;SDS011;58747;50.674;4.616;2022-12-10T07:51:26;47.42;;;15.30;;
71087;SDS011;58747;50.674;4.616;2022-12-10T07:53:52;55.03;;;14.57;;
71087;SDS011;58747;50.674;4.616;2022-12-10T07:56:18;46.80;;;14.43;;
71087;SDS011;58747;50.674;4.616;2022-12-10T07:58:44;51.05;;;15.02;;
71087;SDS011;58747;50.674;4.616;2022-12-10T08:01:11;52.50;;;14.77;;
71087;SDS011;58747;50.674;4.616;2022-12-10T08:03:38;47.88;;;14.40;;
71087;SDS011;58747;50.674;4.616;2022-12-10T08:06:05;50.90;;;14.18;;
71087;SDS011;58747;50.674;4.616;2022-12-10T08:08:32;47.72;;;15.88;;
71087;SDS011;58747;50.674;4.616;2022-12-10T08:10:59;54.22;;;15.35;;
71087;SDS011;58747;50.674;4.616;2022-12-10T08:13:25;56.53;;;13.67;;
71087;SDS011;58747;50.674;4.616;2022-12-10T08:15:51;50.80;;;12.07;;
71087;SDS011;58747;50.674;4.616;2022-12-10T08:18:17;43.90;;;14.20;;
71087;SDS011;58747;50.674;4.616;2022-12-10T08:20:42;41.85;;;12.35;;
71087;SDS011;58747;50.674;4.616;2022-12-10T08:23:07;43.05;;;12.27;;
71087;SDS011;58747;50.674;4.616;2022-12-10T08:25:33;38.07;;;11.77;;
71087;SDS011;58747;50.674;4.616;2022-12-10T08:27:58;54.43;;;12.97;;
71087;SDS011;58747;50.674;4.616;2022-12-10T08:30:27;40.95;;;12.18;;
71087;SDS011;58747;50.674;4.616;2022-12-10T08:32:53;50.43;;;11.57;;
71087;SDS011;58747;50.674;4.616;2022-12-10T08:35:18;56.60;;;13.97;;
71087;SDS011;58747;50.674;4.616;2022-12-10T08:37:43;40.00;;;11.70;;
71087;SDS011;58747;50.674;4.616;2022-12-10T08:40:09;38.67;;;11.67;;
71087;SDS011;58747;50.674;4.616;2022-12-10T08:42:35;49.53;;;13.30;;
71087;SDS011;58747;50.674;4.616;2022-12-10T08:45:00;33.97;;;11.20;;
71087;SDS011;58747;50.674;4.616;2022-12-10T08:47:26;34.35;;;11.80;;
71087;SDS011;58747;50.674;4.616;2022-12-10T08:49:52;34.90;;;10.67;;
71087;SDS011;58747;50.674;4.616;2022-12-10T08:52:17;34.20;;;10.83;;
71087;SDS011;58747;50.674;4.616;2022-12-10T08:54:42;36.37;;;11.83;;
71087;SDS011;58747;50.674;4.616;2022-12-10T08:57:08;43.80;;;12.93;;
71087;SDS011;58747;50.674;4.616;2022-12-10T08:59:33;39.97;;;12.50;;
71087;SDS011;58747;50.674;4.616;2022-12-10T09:01:58;41.93;;;14.10;;
71087;SDS011;58747;50.674;4.616;2022-12-10T09:04:24;39.00;;;12.60;;
71087;SDS011;58747;50.674;4.616;2022-12-10T09:06:49;34.33;;;11.80;;
71087;SDS011;58747;50.674;4.616;2022-12-10T09:09:15;33.03;;;11.90;;
71087;SDS011;58747;50.674;4.616;2022-12-10T09:11:40;39.80;;;12.00;;
71087;SDS011;58747;50.674;4.616;2022-12-10T09:14:06;33.03;;;9.77;;
71087;SDS011;58747;50.674;4.616;2022-12-10T09:16:32;31.90;;;10.33;;
71087;SDS011;58747;50.674;4.616;2022-12-10T09:18:59;32.33;;;11.60;;
71087;SDS011;58747;50.674;4.616;2022-12-10T09:21:25;35.47;;;9.98;;
71087;SDS011;58747;50.674;4.616;2022-12-10T09:23:50;32.50;;;10.83;;
71087;SDS011;58747;50.674;4.616;2022-12-10T09:26:17;35.47;;;9.73;;
71087;SDS011;58747;50.674;4.616;2022-12-10T09:28:44;27.25;;;9.45;;
71087;SDS011;58747;50.674;4.616;2022-12-10T09:31:10;31.40;;;10.30;;
71087;SDS011;58747;50.674;4.616;2022-12-10T09:33:37;30.77;;;9.20;;
71087;SDS011;58747;50.674;4.616;2022-12-10T09:36:03;33.90;;;10.13;;
71087;SDS011;58747;50.674;4.616;2022-12-10T09:38:31;31.92;;;10.40;;
71087;SDS011;58747;50.674;4.616;2022-12-10T09:41:03;41.40;;;11.30;;
71087;SDS011;58747;50.674;4.616;2022-12-10T09:43:48;32.97;;;10.63;;
71087;SDS011;58747;50.674;4.616;2022-12-10T09:52:05;36.60;;;11.63;;
71087;SDS011;58747;50.674;4.616;2022-12-10T09:54:56;36.65;;;12.02;;
71087;SDS011;58747;50.674;4.616;2022-12-10T09:57:28;29.65;;;11.05;;
71087;SDS011;58747;50.674;4.616;2022-12-10T09:59:56;34.83;;;9.48;;
71087;SDS011;58747;50.674;4.616;2022-12-10T10:02:27;30.48;;;8.85;;
71087;SDS011;58747;50.674;4.616;2022-12-10T10:05:08;35.40;;;9.20;;
71087;SDS011;58747;50.674;4.616;2022-12-10T10:07:44;28.92;;;9.23;;
71087;SDS011;58747;50.674;4.616;2022-12-10T10:12:47;36.65;;;9.90;;
71087;SDS011;58747;50.674;4.616;2022-12-10T10:15:14;32.58;;;10.25;;
71087;SDS011;58747;50.674;4.616;2022-12-10T10:17:43;35.40;;;10.25;;
71087;SDS011;58747;50.674;4.616;2022-12-10T10:20:11;36.20;;;10.63;;
71087;SDS011;58747;50.674;4.616;2022-12-10T10:22:38;36.33;;;10.52;;
71087;SDS011;58747;50.674;4.616;2022-12-10T10:25:05;29.42;;;9.65;;
71087;SDS011;58747;50.674;4.616;2022-12-10T10:27:37;30.58;;;10.90;;
71087;SDS011;58747;50.674;4.616;2022-12-10T10:30:03;33.05;;;12.18;;
71087;SDS011;58747;50.674;4.616;2022-12-10T10:35:00;33.05;;;10.27;;
71087;SDS011;58747;50.674;4.616;2022-12-10T10:37:28;34.75;;;10.77;;
71087;SDS011;58747;50.674;4.616;2022-12-10T10:39:56;35.42;;;13.93;;
71087;SDS011;58747;50.674;4.616;2022-12-10T10:42:25;31.92;;;11.52;;
71087;SDS011;58747;50.674;4.616;2022-12-10T10:44:57;29.67;;;11.10;;
71087;SDS011;58747;50.674;4.616;2022-12-10T10:47:33;34.08;;;10.70;;
71087;SDS011;58747;50.674;4.616;2022-12-10T10:50:02;32.10;;;11.60;;
71087;SDS011;58747;50.674;4.616;2022-12-10T10:52:30;28.38;;;9.75;;
71087;SDS011;58747;50.674;4.616;2022-12-10T10:55:02;31.95;;;10.20;;
71087;SDS011;58747;50.674;4.616;2022-12-10T10:57:34;35.08;;;11.68;;
71087;SDS011;58747;50.674;4.616;2022-12-10T11:00:06;28.98;;;9.60;;
71087;SDS011;58747;50.674;4.616;2022-12-10T11:02:43;35.42;;;9.88;;
71087;SDS011;58747;50.674;4.616;2022-12-10T11:08:01;34.97;;;9.57;;
71087;SDS011;58747;50.674;4.616;2022-12-10T11:10:30;34.45;;;11.30;;
71087;SDS011;58747;50.674;4.616;2022-12-10T11:12:57;30.23;;;9.90;;
71087;SDS011;58747;50.674;4.616;2022-12-10T11:17:52;34.37;;;10.17;;
71087;SDS011;58747;50.674;4.616;2022-12-10T11:23:03;30.95;;;10.40;;
71087;SDS011;58747;50.674;4.616;2022-12-10T11:25:55;34.05;;;11.85;;
71087;SDS011;58747;50.674;4.616;2022-12-10T11:31:13;32.30;;;10.55;;
71087;SDS011;58747;50.674;4.616;2022-12-10T11:39:44;34.13;;;11.35;;
71087;SDS011;58747;50.674;4.616;2022-12-10T11:50:25;27.48;;;10.88;;
71087;SDS011;58747;50.674;4.616;2022-12-10T11:58:51;35.67;;;11.48;;
71087;SDS011;58747;50.674;4.616;2022-12-10T12:15:01;36.33;;;10.93;;
71087;SDS011;58747;50.674;4.616;2022-12-10T12:17:34;40.38;;;12.63;;
71087;SDS011;58747;50.674;4.616;2022-12-10T12:20:25;41.47;;;13.48;;
71087;SDS011;58747;50.674;4.616;2022-12-10T12:23:29;39.20;;;12.32;;
71087;SDS011;58747;50.674;4.616;2022-12-10T12:26:10;40.70;;;13.35;;
71087;SDS011;58747;50.674;4.616;2022-12-10T12:29:05;37.50;;;13.20;;
71087;SDS011;58747;50.674;4.616;2022-12-10T12:31:35;39.35;;;11.93;;
71087;SDS011;58747;50.674;4.616;2022-12-10T12:36:49;27.83;;;12.13;;
71087;SDS011;58747;50.674;4.616;2022-12-10T12:45:02;37.10;;;12.70;;
71087;SDS011;58747;50.674;4.616;2022-12-10T12:47:46;37.83;;;12.70;;
71087;SDS011;58747;50.674;4.616;2022-12-10T12:52:59;47.35;;;16.23;;
71087;SDS011;58747;50.674;4.616;2022-12-10T12:55:28;41.95;;;14.48;;
71087;SDS011;58747;50.674;4.616;2022-12-10T13:00:46;37.60;;;12.23;;
71087;SDS011;58747;50.674;4.616;2022-12-10T13:03:35;37.83;;;12.45;;
71087;SDS011;58747;50.674;4.616;2022-12-10T13:06:20;34.25;;;11.50;;
71087;SDS011;58747;50.674;4.616;2022-12-10T13:08:49;35.97;;;12.32;;
71087;SDS011;58747;50.674;4.616;2022-12-10T13:11:16;33.22;;;13.63;;
71087;SDS011;58747;50.674;4.616;2022-12-10T13:24:17;34.78;;;11.45;;
71087;SDS011;58747;50.674;4.616;2022-12-10T13:29:29;39.92;;;12.10;;
71087;SDS011;58747;50.674;4.616;2022-12-10T13:37:32;32.25;;;11.80;;
71087;SDS011;58747;50.674;4.616;2022-12-10T13:42:42;41.78;;;14.20;;
71087;SDS011;58747;50.674;4.616;2022-12-10T13:45:29;42.75;;;13.85;;
71087;SDS011;58747;50.674;4.616;2022-12-10T13:53:52;40.90;;;14.13;;
71087;SDS011;58747;50.674;4.616;2022-12-10T13:56:46;38.63;;;13.48;;
71087;SDS011;58747;50.674;4.616;2022-12-10T14:05:14;39.45;;;14.20;;
71087;SDS011;58747;50.674;4.616;2022-12-10T14:07:47;42.07;;;13.70;;
71087;SDS011;58747;50.674;4.616;2022-12-10T14:10:15;36.53;;;12.98;;
71087;SDS011;58747;50.674;4.616;2022-12-10T14:12:43;38.42;;;12.80;;
71087;SDS011;58747;50.674;4.616;2022-12-10T14:15:18;36.22;;;14.13;;
71087;SDS011;58747;50.674;4.616;2022-12-10T14:17:48;36.30;;;11.55;;
71087;SDS011;58747;50.674;4.616;2022-12-10T14:20:19;46.50;;;14.83;;
71087;SDS011;58747;50.674;4.616;2022-12-10T14:22:52;46.00;;;14.63;;
71087;SDS011;58747;50.674;4.616;2022-12-10T14:25:42;39.47;;;13.73;;
71087;SDS011;58747;50.674;4.616;2022-12-10T14:28:11;42.60;;;14.40;;
71087;SDS011;58747;50.674;4.616;2022-12-10T14:30:38;43.17;;;14.07;;
71087;SDS011;58747;50.674;4.616;2022-12-10T14:33:08;42.43;;;13.73;;
71087;SDS011;58747;50.674;4.616;2022-12-10T14:35:38;42.35;;;14.77;;
71087;SDS011;58747;50.674;4.616;2022-12-10T14:38:04;46.47;;;14.52;;
71087;SDS011;58747;50.674;4.616;2022-12-10T14:40:36;41.70;;;13.00;;
71087;SDS011;58747;50.674;4.616;2022-12-10T14:43:05;33.83;;;11.85;;
71087;SDS011;58747;50.674;4.616;2022-12-10T14:45:45;36.53;;;13.98;;
71087;SDS011;58747;50.674;4.616;2022-12-10T14:48:16;39.00;;;14.43;;
71087;SDS011;58747;50.674;4.616;2022-12-10T14:50:44;38.22;;;13.70;;
71087;SDS011;58747;50.674;4.616;2022-12-10T14:53:14;38.97;;;13.98;;
71087;SDS011;58747;50.674;4.616;2022-12-10T14:55:43;42.28;;;14.52;;
71087;SDS011;58747;50.674;4.616;2022-12-10T14:58:14;41.90;;;14.20;;
71087;SDS011;58747;50.674;4.616;2022-12-10T15:00:46;43.55;;;14.07;;
71087;SDS011;58747;50.674;4.616;2022-12-10T15:03:13;37.65;;;11.75;;
71087;SDS011;58747;50.674;4.616;2022-12-10T15:05:58;39.30;;;12.15;;
71087;SDS011;58747;50.674;4.616;2022-12-10T15:08:26;39.15;;;13.50;;
71087;SDS011;58747;50.674;4.616;2022-12-10T15:10:56;44.72;;;13.32;;
71087;SDS011;58747;50.674;4.616;2022-12-10T15:15:59;39.60;;;12.80;;
71087;SDS011;58747;50.674;4.616;2022-12-10T15:18:27;39.78;;;14.27;;
71087;SDS011;58747;50.674;4.616;2022-12-10T15:23:42;40.80;;;14.20;;
71087;SDS011;58747;50.674;4.616;2022-12-10T15:28:45;32.05;;;12.13;;
71087;SDS011;58747;50.674;4.616;2022-12-10T15:31:21;32.92;;;12.43;;
71087;SDS011;58747;50.674;4.616;2022-12-10T15:33:54;38.50;;;13.23;;
71087;SDS011;58747;50.674;4.616;2022-12-10T15:36:27;32.75;;;11.15;;
71087;SDS011;58747;50.674;4.616;2022-12-10T15:39:19;35.45;;;12.15;;
71087;SDS011;58747;50.674;4.616;2022-12-10T15:41:48;37.40;;;11.93;;
71087;SDS011;58747;50.674;4.616;2022-12-10T15:49:28;37.00;;;11.80;;
71087;SDS011;58747;50.674;4.616;2022-12-10T15:51:54;36.30;;;11.95;;
71087;SDS011;58747;50.674;4.616;2022-12-10T15:54:32;37.03;;;13.23;;
71087;SDS011;58747;50.674;4.616;2022-12-10T15:57:22;41.53;;;15.20;;
71087;SDS011;58747;50.674;4.616;2022-12-10T15:59:58;34.72;;;12.65;;
71087;SDS011;58747;50.674;4.616;2022-12-10T16:02:37;39.53;;;13.07;;
71087;SDS011;58747;50.674;4.616;2022-12-10T16:05:19;32.45;;;12.65;;
71087;SDS011;58747;50.674;4.616;2022-12-10T16:07:53;35.38;;;11.50;;
71087;SDS011;58747;50.674;4.616;2022-12-10T16:10:19;33.30;;;11.20;;
71087;SDS011;58747;50.674;4.616;2022-12-10T16:12:48;33.53;;;12.27;;
71087;SDS011;58747;50.674;4.616;2022-12-10T16:15:16;38.90;;;12.80;;
71087;SDS011;58747;50.674;4.616;2022-12-10T16:17:45;31.23;;;11.07;;
71087;SDS011;58747;50.674;4.616;2022-12-10T16:20:18;34.10;;;13.00;;
71087;SDS011;58747;50.674;4.616;2022-12-10T16:22:46;32.38;;;10.82;;
71087;SDS011;58747;50.674;4.616;2022-12-10T16:25:12;33.23;;;12.83;;
71087;SDS011;58747;50.674;4.616;2022-12-10T16:27:39;30.42;;;11.10;;
71087;SDS011;58747;50.674;4.616;2022-12-10T16:30:23;32.85;;;12.38;;
71087;SDS011;58747;50.674;4.616;2022-12-10T16:33:01;28.23;;;11.27;;
71087;SDS011;58747;50.674;4.616;2022-12-10T16:35:27;36.22;;;12.30;;
71087;SDS011;58747;50.674;4.616;2022-12-10T16:37:53;32.97;;;11.43;;
71087;SDS011;58747;50.674;4.616;2022-12-10T16:40:20;29.30;;;11.05;;
71087;SDS011;58747;50.674;4.616;2022-12-10T16:42:47;32.35;;;12.77;;
71087;SDS011;58747;50.674;4.616;2022-12-10T16:45:19;33.47;;;12.52;;
71087;SDS011;58747;50.674;4.616;2022-12-10T16:47:56;36.90;;;12.45;;
71087;SDS011;58747;50.674;4.616;2022-12-10T16:50:22;37.20;;;12.87;;
71087;SDS011;58747;50.674;4.616;2022-12-10T16:52:47;35.53;;;12.40;;
71087;SDS011;58747;50.674;4.616;2022-12-10T16:55:14;35.63;;;13.53;;
71087;SDS011;58747;50.674;4.616;2022-12-10T16:57:42;38.17;;;12.70;;
71087;SDS011;58747;50.674;4.616;2022-12-10T17:00:10;34.58;;;11.70;;
71087;SDS011;58747;50.674;4.616;2022-12-10T17:02:41;38.00;;;12.70;;
71087;SDS011;58747;50.674;4.616;2022-12-10T17:05:15;32.30;;;12.25;;